Time;durP1;ratioP1;P1;durP2;ratioP2;P2;SDS_P1;SDS_P2;PMS_P1;PMS_P2;Temp;Humidity;BMP_temperature;BMP_pressure;BME280_temperature;BME280_humidity;BME280_pressure;Samples;Min_cycle;Max_cycle;Signal;HPM_P1;HPM_P2
2022/12/01 00:01:20;;;;;;;3.67;1.40;;;;;;;8.27;49.02;100542.03;4368713;32;33710;-84
2022/12/01 00:03:48;;;;;;;1.60;1.45;;;;;;;8.27;48.72;100546.44;4358761;32;33622;-83
2022/12/01 00:06:18;;;;;;;0.40;0.40;;;;;;;8.43;48.33;100548.69;4358814;32;33900;-83
2022/12/01 00:11:35;;;;;;;0.22;0.22;;;;;;;8.39;48.57;100552.28;4372697;32;33968;-84
2022/12/01 00:14:03;;;;;;;0.60;0.60;;;;;;;8.21;48.53;100550.03;4347140;32;32930;-83
2022/12/01 00:16:31;;;;;;;0.73;0.73;;;;;;;8.12;48.61;100552.91;4371093;32;33887;-83
2022/12/01 00:18:59;;;;;;;1.52;1.42;;;;;;;8.32;47.89;100544.56;4351949;32;179610;-83
2022/12/01 00:21:26;;;;;;;0.65;0.65;;;;;;;7.88;49.33;100554.25;4347884;32;32818;-84
2022/12/01 00:23:56;;;;;;;0.95;0.95;;;;;;;7.61;49.50;100553.06;4356913;32;33618;-83
2022/12/01 00:26:26;;;;;;;1.08;0.65;;;;;;;7.83;49.09;100551.75;4369209;32;32514;-82
2022/12/01 00:28:56;;;;;;;3.10;2.80;;;;;;;7.84;49.00;100548.22;4346373;32;32986;-82
2022/12/01 00:31:24;;;;;;;4.22;1.27;;;;;;;7.86;49.01;100562.19;4346998;32;32821;-82
2022/12/01 00:33:52;;;;;;;0.00;0.00;;;;;;;7.94;48.64;100562.03;4345700;32;32352;-83
2022/12/01 00:36:20;;;;;;;1.30;0.77;;;;;;;7.90;48.81;100563.84;4346588;32;33285;-82
2022/12/01 00:38:51;;;;;;;0.20;0.20;;;;;;;7.85;49.12;100563.09;4356007;32;33115;-83
2022/12/01 00:41:20;;;;;;;0.85;0.85;;;;;;;7.83;49.48;100558.75;4364034;32;33523;-82
2022/12/01 00:43:49;;;;;;;1.90;1.77;;;;;;;7.78;49.59;100566.72;4370196;32;33607;-83
2022/12/01 00:46:17;;;;;;;0.40;0.40;;;;;;;7.66;49.76;100561.72;4358834;32;33322;-82
2022/12/01 00:48:45;;;;;;;4.25;1.50;;;;;;;7.64;49.85;100564.38;4346523;32;32995;-82
2022/12/01 00:51:13;;;;;;;0.20;0.20;;;;;;;7.61;49.86;100564.44;4367314;32;34202;-82
2022/12/01 00:53:40;;;;;;;0.45;0.45;;;;;;;7.45;49.94;100570.88;4357634;32;33027;-82
2022/12/01 00:56:08;;;;;;;2.45;1.48;;;;;;;7.29;50.38;100567.66;4363784;32;32029;-82
2022/12/01 00:58:35;;;;;;;3.25;2.67;;;;;;;7.16;50.54;100572.25;4358049;32;33640;-83
2022/12/01 01:01:03;;;;;;;2.05;1.92;;;;;;;6.80;51.82;100571.12;4361642;32;33628;-83
2022/12/01 01:03:31;;;;;;;1.45;0.90;;;;;;;6.98;51.45;100577.84;4357444;32;33181;-83
2022/12/01 01:06:04;;;;;;;0.43;0.43;;;;;;;6.91;51.09;100579.69;4356125;32;33896;-82
2022/12/01 01:08:32;;;;;;;0.73;0.73;;;;;;;6.93;51.31;100582.28;4377006;32;33710;-83
2022/12/01 01:11:00;;;;;;;0.70;0.70;;;;;;;7.16;50.46;100574.03;4371006;32;33904;-82
2022/12/01 01:13:28;;;;;;;0.52;0.52;;;;;;;7.20;50.50;100575.69;4364423;32;32997;-83
2022/12/01 01:16:01;;;;;;;1.23;1.15;;;;;;;6.97;51.10;100575.22;4361839;32;33281;-83
2022/12/01 01:18:29;;;;;;;0.75;0.75;;;;;;;6.70;51.67;100569.53;4357444;32;34138;-83
2022/12/01 01:21:02;;;;;;;0.98;0.98;;;;;;;6.98;51.06;100567.34;4358135;32;33864;-82
2022/12/01 01:23:30;;;;;;;1.30;1.15;;;;;;;6.98;51.19;100566.44;4359873;32;32018;-82
2022/12/01 01:26:03;;;;;;;0.45;0.45;;;;;;;6.85;51.66;100569.28;4375362;32;34552;-82
2022/12/01 01:28:31;;;;;;;1.10;1.10;;;;;;;6.86;51.40;100571.03;4369511;32;33788;-82
2022/12/01 01:31:05;;;;;;;0.25;0.25;;;;;;;7.01;51.19;100566.41;4345520;32;32808;-82
2022/12/01 01:33:32;;;;;;;1.37;1.27;;;;;;;7.18;50.91;100557.34;4367124;32;32382;-82
2022/12/01 01:36:01;;;;;;;2.60;2.40;;;;;;;7.02;50.98;100555.00;4356833;32;33243;-82
2022/12/01 01:38:29;;;;;;;0.57;0.57;;;;;;;6.79;51.60;100564.16;4370502;32;33091;-83
2022/12/01 01:40:57;;;;;;;2.35;1.73;;;;;;;6.75;52.27;100562.47;4345323;32;33894;-82
2022/12/01 01:43:50;;;;;;;0.32;0.32;;;;;;;6.50;52.88;100558.47;4358544;32;32993;-82
2022/12/01 01:46:29;;;;;;;0.28;0.28;;;;;;;6.80;52.13;100559.75;4358302;32;33347;-82
2022/12/01 01:49:03;;;;;;;1.55;1.45;;;;;;;6.95;51.59;100559.50;4358126;32;33236;-82
2022/12/01 01:51:49;;;;;;;1.25;1.25;;;;;;;6.93;51.52;100566.53;4369276;32;34144;-82
2022/12/01 01:54:24;;;;;;;1.42;0.77;;;;;;;6.82;51.83;100569.34;4356249;32;32987;-83
2022/12/01 01:56:53;;;;;;;0.25;0.25;;;;;;;6.51;52.68;100568.09;4351377;32;33185;-82
2022/12/01 01:59:28;;;;;;;0.52;0.52;;;;;;;6.48;52.76;100568.13;4356203;32;33347;-82
2022/12/01 02:02:02;;;;;;;2.37;1.08;;;;;;;6.61;52.51;100569.69;4342405;32;33891;-82
2022/12/01 02:04:31;;;;;;;0.22;0.22;;;;;;;6.49;52.75;100569.84;4370991;32;33363;-82
2022/12/01 02:06:59;;;;;;;1.45;1.37;;;;;;;6.36;53.30;100567.44;4357500;32;32953;-83
2022/12/01 02:09:28;;;;;;;0.10;0.10;;;;;;;6.50;52.82;100567.19;4367885;32;34732;-83
2022/12/01 02:12:06;;;;;;;0.30;0.30;;;;;;;6.41;52.94;100565.59;4368585;32;33415;-83
2022/12/01 02:14:45;;;;;;;0.13;0.13;;;;;;;6.18;53.76;100567.69;4359360;32;32287;-83
2022/12/01 02:17:16;;;;;;;0.75;0.73;;;;;;;6.04;54.35;100567.84;4369445;32;34508;-83
2022/12/01 02:20:12;;;;;;;0.98;0.90;;;;;;;6.04;54.46;100567.00;4358503;32;32781;-83
2022/12/01 02:23:04;;;;;;;1.50;1.40;;;;;;;6.01;54.62;100562.63;4357095;32;33519;-83
2022/12/01 02:26:03;;;;;;;2.47;1.70;;;;;;;5.97;54.51;100562.69;4368689;32;33119;-83
2022/12/01 02:29:00;;;;;;;0.65;0.32;;;;;;;5.67;55.28;100570.00;4348190;32;32949;-83
2022/12/01 02:31:47;;;;;;;0.32;0.32;;;;;;;5.84;54.53;100562.84;4369925;32;33866;-83
2022/12/01 02:34:29;;;;;;;0.30;0.30;;;;;;;5.63;55.59;100576.16;4363879;32;33013;-83
2022/12/01 02:37:03;;;;;;;0.90;0.90;;;;;;;5.39;56.30;100565.06;4358876;32;33164;-82
2022/12/01 02:39:36;;;;;;;1.10;1.10;;;;;;;5.43;56.10;100562.44;4348064;32;32713;-82
2022/12/01 02:42:47;;;;;;;2.05;1.75;;;;;;;5.36;55.88;100572.09;4361170;32;32978;-82
2022/12/01 02:45:05;;;;;;;0.80;0.80;;;;;;;5.22;56.61;100555.66;4374222;32;32436;-81
2022/12/01 02:47:33;;;;;;;0.97;0.97;;;;;;;5.22;56.25;100564.41;4371375;32;33364;-82
2022/12/01 02:50:02;;;;;;;0.85;0.85;;;;;;;4.83;57.92;100558.59;4345216;32;33355;-81
2022/12/01 02:52:29;;;;;;;0.30;0.30;;;;;;;4.91;57.87;100560.31;4360994;32;34674;-82
2022/12/01 02:54:57;;;;;;;0.17;0.17;;;;;;;4.87;57.87;100562.94;4371565;32;33234;-81
2022/12/01 02:57:25;;;;;;;1.92;1.83;;;;;;;4.91;57.88;100555.06;4378516;32;32159;-81
2022/12/01 02:59:54;;;;;;;0.40;0.40;;;;;;;4.88;57.97;100559.44;4387021;32;33531;-81
2022/12/01 03:02:41;;;;;;;4.82;1.62;;;;;;;4.70;58.34;100563.94;4366123;32;33718;-83
2022/12/01 03:05:15;;;;;;;1.55;1.48;;;;;;;4.87;58.10;100562.94;4379098;32;33960;-83
2022/12/01 03:08:05;;;;;;;4.50;1.08;;;;;;;4.95;57.78;100559.41;4359990;32;32127;-83
2022/12/01 03:10:44;;;;;;;1.62;1.52;;;;;;;4.99;57.52;100559.37;4357963;32;33858;-83
2022/12/01 03:13:39;;;;;;;1.20;1.17;;;;;;;4.87;57.61;100556.84;4360369;32;33877;-83
2022/12/01 03:16:12;;;;;;;0.00;0.00;;;;;;;4.56;58.46;100561.47;4374431;32;33612;-83
2022/12/01 03:18:45;;;;;;;0.10;0.10;;;;;;;4.73;58.08;100558.69;4373431;32;33203;-83
2022/12/01 03:21:32;;;;;;;0.52;0.52;;;;;;;4.74;58.08;100561.28;4358252;32;33988;-82
2022/12/01 03:24:04;;;;;;;1.37;1.35;;;;;;;4.81;57.70;100557.75;4363883;32;33514;-83
2022/12/01 03:26:33;;;;;;;1.95;1.87;;;;;;;4.91;57.55;100553.31;4358337;32;32842;-83
2022/12/01 03:29:14;;;;;;;0.45;0.45;;;;;;;4.86;57.45;100552.50;4347059;32;33254;-83
2022/12/01 03:31:45;;;;;;;1.12;1.10;;;;;;;5.12;56.91;100549.63;4358093;32;33740;-83
2022/12/01 03:34:37;;;;;;;0.82;0.82;;;;;;;5.06;56.48;100547.94;4370253;32;33922;-82
2022/12/01 03:37:13;;;;;;;1.02;1.02;;;;;;;5.15;56.11;100544.38;4376323;32;32657;-82
2022/12/01 03:39:41;;;;;;;0.20;0.20;;;;;;;5.21;55.91;100540.81;4384614;32;33854;-82
2022/12/01 03:42:18;;;;;;;0.73;0.73;;;;;;;5.12;56.14;100536.53;4376298;32;32937;-82
2022/12/01 03:44:52;;;;;;;0.28;0.28;;;;;;;5.39;55.44;100536.25;4371917;32;33818;-81
2022/12/01 03:47:31;;;;;;;0.20;0.20;;;;;;;5.44;54.89;100527.50;4368848;32;33492;-83
2022/12/01 03:49:59;;;;;;;1.35;1.23;;;;;;;5.59;54.76;100527.31;4364320;32;32543;-82
2022/12/01 03:52:27;;;;;;;0.00;0.00;;;;;;;5.26;55.34;100537.25;4349062;32;33172;-84
2022/12/01 03:55:30;;;;;;;1.00;0.70;;;;;;;5.63;54.52;100531.63;4376350;32;33008;-83
2022/12/01 03:58:05;;;;;;;0.00;0.00;;;;;;;5.59;54.04;100522.06;4371321;32;34562;-83
2022/12/01 04:00:33;;;;;;;1.55;1.45;;;;;;;5.50;54.22;100519.56;4371529;32;32846;-83
2022/12/01 04:03:02;;;;;;;0.37;0.37;;;;;;;5.44;54.65;100522.25;4360713;32;33952;-82
2022/12/01 04:05:33;;;;;;;0.43;0.43;;;;;;;5.35;54.52;100518.84;4372138;32;33600;-82
2022/12/01 04:08:01;;;;;;;0.88;0.88;;;;;;;5.38;54.49;100513.59;4368682;32;33147;-81
2022/12/01 04:10:28;;;;;;;0.55;0.55;;;;;;;5.55;53.98;100509.88;4355569;32;33154;-81
2022/12/01 04:12:58;;;;;;;4.70;2.17;;;;;;;5.18;54.96;100510.31;4357429;32;33667;-81
2022/12/01 04:15:26;;;;;;;0.43;0.43;;;;;;;5.50;54.12;100495.97;4359065;32;33701;-82
2022/12/01 04:17:54;;;;;;;0.30;0.30;;;;;;;5.25;54.62;100501.50;4369165;32;34225;-82
2022/12/01 04:20:21;;;;;;;1.02;1.02;;;;;;;5.27;54.67;100499.75;4356175;32;32906;-82
2022/12/01 04:22:49;;;;;;;1.35;1.25;;;;;;;5.34;54.30;100503.16;4355958;32;32348;-82
2022/12/01 04:25:17;;;;;;;1.00;1.00;;;;;;;5.09;55.02;100513.03;4358360;32;33265;-81
2022/12/01 04:27:44;;;;;;;0.00;0.00;;;;;;;5.11;55.11;100513.88;4363937;32;33765;-81
2022/12/01 04:30:12;;;;;;;1.05;1.05;;;;;;;4.92;55.65;100528.00;4381216;32;32751;-82
2022/12/01 04:32:41;;;;;;;0.17;0.17;;;;;;;5.09;55.22;100545.31;4358097;32;34106;-81
2022/12/01 04:35:10;;;;;;;0.62;0.60;;;;;;;5.08;55.25;100546.19;4375124;32;33226;-82
2022/12/01 04:37:39;;;;;;;2.17;1.65;;;;;;;5.43;54.66;100541.47;4357460;32;34442;-82
2022/12/01 04:40:07;;;;;;;0.30;0.30;;;;;;;5.26;54.98;100547.75;4357267;32;33112;-82
2022/12/01 04:42:35;;;;;;;0.47;0.47;;;;;;;5.21;55.05;100540.81;4372501;32;34273;-82
2022/12/01 04:45:03;;;;;;;0.08;0.08;;;;;;;5.28;54.74;100530.28;4352436;32;34105;-82
2022/12/01 04:47:30;;;;;;;1.05;0.62;;;;;;;5.52;54.28;100533.53;4357238;32;33805;-82
2022/12/01 04:49:59;;;;;;;1.80;1.70;;;;;;;5.44;54.04;100533.59;4361443;32;32430;-81
2022/12/01 04:52:27;;;;;;;1.35;1.25;;;;;;;5.37;54.24;100538.03;4376618;32;34623;-81
2022/12/01 04:55:02;;;;;;;2.65;2.45;;;;;;;5.27;54.44;100544.25;4367633;32;34582;-81
2022/12/01 04:57:30;;;;;;;1.10;1.10;;;;;;;5.51;54.41;100552.75;4360753;32;33573;-82
2022/12/01 04:59:57;;;;;;;2.65;2.45;;;;;;;5.70;53.67;100559.50;4359688;32;33177;-82
2022/12/01 05:02:25;;;;;;;1.87;1.70;;;;;;;5.57;53.65;100555.28;4373673;32;33613;-83
2022/12/01 05:04:53;;;;;;;0.25;0.25;;;;;;;5.64;53.50;100562.19;4371036;32;33699;-83
2022/12/01 05:07:20;;;;;;;1.17;1.15;;;;;;;5.50;53.82;100561.47;4359837;32;34192;-82
2022/12/01 05:09:48;;;;;;;1.10;1.05;;;;;;;5.68;53.66;100558.66;4376909;32;33779;-83
2022/12/01 05:12:16;;;;;;;0.43;0.43;;;;;;;5.64;53.43;100552.56;4386115;32;33890;-83
2022/12/01 05:14:44;;;;;;;5.57;3.10;;;;;;;5.49;53.92;100563.22;4359804;32;34302;-83
2022/12/01 05:17:12;;;;;;;0.65;0.65;;;;;;;5.65;53.69;100559.56;4376428;32;33068;-83
2022/12/01 05:22:26;;;;;;;4.78;2.58;;;;;;;5.70;53.41;100546.41;4373428;32;34233;-83
2022/12/01 05:25:14;;;;;;;0.00;0.00;;;;;;;5.47;54.01;100551.03;4374563;32;33731;-83
2022/12/01 05:27:41;;;;;;;0.22;0.22;;;;;;;5.65;53.46;100553.47;4371143;32;32577;-82
2022/12/01 05:30:09;;;;;;;0.82;0.82;;;;;;;5.57;53.73;100550.06;4375312;32;33418;-83
2022/12/01 05:32:37;;;;;;;0.90;0.90;;;;;;;5.61;53.67;100551.75;4363150;32;33427;-82
2022/12/01 05:35:05;;;;;;;0.37;0.28;;;;;;;5.54;54.38;100544.84;4370467;32;34826;-83
2022/12/01 05:37:33;;;;;;;0.32;0.32;;;;;;;5.59;53.81;100553.50;4358133;32;32386;-83
2022/12/01 05:40:01;;;;;;;0.85;0.80;;;;;;;5.35;54.29;100555.50;4373185;32;33912;-83
2022/12/01 05:42:29;;;;;;;0.00;0.00;;;;;;;5.22;54.88;100556.53;4365749;32;33914;-82
2022/12/01 05:44:56;;;;;;;0.35;0.35;;;;;;;5.37;54.43;100553.75;4366302;32;33631;-83
2022/12/01 05:47:24;;;;;;;0.10;0.10;;;;;;;5.01;55.02;100552.34;4350157;32;32385;-82
2022/12/01 05:49:51;;;;;;;1.30;1.02;;;;;;;5.28;54.66;100555.59;4366235;32;33317;-82
2022/12/01 05:52:19;;;;;;;0.13;0.13;;;;;;;5.37;54.45;100560.75;4363279;32;32658;-82
2022/12/01 05:54:47;;;;;;;0.00;0.00;;;;;;;5.39;54.24;100564.22;4359170;32;33489;-82
2022/12/01 05:57:14;;;;;;;5.90;3.15;;;;;;;5.26;54.51;100566.06;4358287;32;34091;-82
2022/12/01 05:59:42;;;;;;;0.68;0.68;;;;;;;5.37;54.48;100560.75;4375599;32;32654;-83
2022/12/01 06:02:10;;;;;;;1.05;1.05;;;;;;;5.34;54.57;100569.50;4364975;32;33570;-81
2022/12/01 06:04:38;;;;;;;5.00;3.17;;;;;;;5.57;53.80;100571.00;4365093;32;33203;-81
2022/12/01 06:07:05;;;;;;;1.87;1.27;;;;;;;5.58;53.69;100572.75;4357707;32;34055;-82
2022/12/01 06:09:33;;;;;;;3.87;2.08;;;;;;;5.55;53.89;100571.00;4364468;32;33132;-82
2022/12/01 06:12:01;;;;;;;1.75;1.65;;;;;;;4.95;56.03;100580.34;4374264;32;33515;-81
2022/12/01 06:14:28;;;;;;;0.90;0.90;;;;;;;5.16;55.39;100589.75;4353314;32;32683;-82
2022/12/01 06:16:56;;;;;;;0.32;0.32;;;;;;;5.31;55.06;100579.97;4352296;32;32775;-82
2022/12/01 06:19:24;;;;;;;0.35;0.35;;;;;;;5.38;54.76;100586.06;4365929;32;33558;-82
2022/12/01 06:21:51;;;;;;;0.25;0.25;;;;;;;5.06;55.81;100588.97;4386018;32;33892;-82
2022/12/01 06:24:19;;;;;;;0.62;0.62;;;;;;;4.92;55.93;100596.06;4372765;32;33862;-82
2022/12/01 06:26:47;;;;;;;0.52;0.52;;;;;;;4.71;56.75;100595.34;4371449;32;33959;-83
2022/12/01 06:29:14;;;;;;;3.20;1.33;;;;;;;4.58;57.48;100596.31;4384207;32;32894;-82
2022/12/01 06:31:42;;;;;;;2.50;2.37;;;;;;;4.66;57.22;100594.50;4371809;32;34234;-83
2022/12/01 06:34:10;;;;;;;5.80;3.30;;;;;;;4.59;57.62;100593.66;4372114;32;33866;-82
2022/12/01 06:36:38;;;;;;;0.55;0.55;;;;;;;4.58;57.84;100588.47;4346445;32;33478;-81
2022/12/01 06:39:09;;;;;;;2.37;0.77;;;;;;;4.72;57.35;100581.38;4361765;32;33070;-82
2022/12/01 06:41:37;;;;;;;0.10;0.10;;;;;;;4.58;57.87;100585.84;4370678;32;33886;-81
2022/12/01 06:44:05;;;;;;;1.23;1.20;;;;;;;4.67;57.69;100582.31;4370370;32;33944;-82
2022/12/01 06:46:33;;;;;;;1.42;0.57;;;;;;;4.70;57.23;100588.38;4358935;32;33466;-82
2022/12/01 06:49:01;;;;;;;0.82;0.65;;;;;;;4.61;57.33;100584.09;4372715;32;32610;-82
2022/12/01 06:51:29;;;;;;;0.95;0.93;;;;;;;4.53;57.69;100592.84;4374104;32;32764;-82
2022/12/01 06:53:56;;;;;;;3.47;1.10;;;;;;;4.50;57.82;100583.25;4370587;32;33311;-82
2022/12/01 06:56:31;;;;;;;0.20;0.20;;;;;;;4.52;57.91;100585.87;4372076;32;33837;-82
2022/12/01 06:58:59;;;;;;;0.60;0.60;;;;;;;4.54;57.84;100591.97;4344775;32;33742;-81
2022/12/01 07:01:27;;;;;;;1.55;0.93;;;;;;;4.40;58.50;100597.28;4364392;32;32690;-82
2022/12/01 07:03:55;;;;;;;3.83;0.90;;;;;;;4.41;58.31;100598.12;4363133;32;34180;-82
2022/12/01 07:06:23;;;;;;;3.00;2.58;;;;;;;4.39;58.82;100600.78;4364014;32;34565;-85
2022/12/01 07:08:51;;;;;;;1.30;1.25;;;;;;;4.43;58.80;100601.62;4357899;32;33007;-84
2022/12/01 07:11:19;;;;;;;0.75;0.75;;;;;;;4.50;58.87;100598.09;4384434;32;33115;-83
2022/12/01 07:13:49;;;;;;;0.88;0.88;;;;;;;4.35;59.35;100602.53;4366327;32;34593;-82
2022/12/01 07:16:16;;;;;;;1.48;1.37;;;;;;;4.45;59.15;100599.87;4371535;32;35052;-83
2022/12/01 07:18:44;;;;;;;1.55;1.45;;;;;;;4.48;59.56;100607.69;4370072;32;31866;-82
2022/12/01 07:21:13;;;;;;;3.08;2.87;;;;;;;4.88;57.68;100603.91;4390392;32;33582;-82
2022/12/01 07:23:41;;;;;;;2.50;2.05;;;;;;;4.66;58.76;100599.75;4342680;32;35083;-82
2022/12/01 07:26:11;;;;;;;2.40;2.22;;;;;;;4.69;59.17;100604.06;4364997;32;33624;-82
2022/12/01 07:28:39;;;;;;;1.02;1.02;;;;;;;4.53;59.47;100603.31;4385657;32;33375;-83
2022/12/01 07:31:09;;;;;;;1.95;1.87;;;;;;;4.83;58.87;100597.00;4372839;32;32431;-83
2022/12/01 07:33:39;;;;;;;6.37;4.75;;;;;;;4.80;59.24;100599.66;4361270;32;33913;-81
2022/12/01 07:36:07;;;;;;;4.57;2.85;;;;;;;5.32;57.50;100597.47;4386262;32;34116;-82
2022/12/01 07:38:36;;;;;;;2.08;1.05;;;;;;;4.98;58.28;100596.00;4365925;32;34417;-82
2022/12/01 07:41:17;;;;;;;12.77;11.52;;;;;;;4.57;59.54;100594.56;4372883;32;33612;-82
2022/12/01 07:43:47;;;;;;;15.20;12.02;;;;;;;4.65;59.74;100603.22;4367900;32;32595;-82
2022/12/01 07:46:17;;;;;;;4.20;3.92;;;;;;;4.66;59.62;100604.09;4371667;32;33965;-82
2022/12/01 07:48:51;;;;;;;8.10;7.47;;;;;;;4.68;59.62;100608.44;4357331;32;32291;-82
2022/12/01 07:51:19;;;;;;;16.75;10.55;;;;;;;4.93;59.24;100603.03;4361607;32;33716;-82
2022/12/01 07:53:48;;;;;;;14.05;12.65;;;;;;;4.96;58.99;100603.00;4359297;32;33907;-82
2022/12/01 07:56:16;;;;;;;14.50;11.18;;;;;;;5.07;58.81;100598.53;4370791;32;33814;-82
2022/12/01 07:58:44;;;;;;;20.12;14.35;;;;;;;5.00;58.80;100605.59;4370600;32;32692;-82
2022/12/01 08:01:19;;;;;;;12.15;7.45;;;;;;;5.19;58.64;100611.53;4383817;32;33741;-82
2022/12/01 08:03:48;;;;;;;12.40;11.07;;;;;;;5.44;58.09;100617.41;4373156;32;33533;-82
2022/12/01 08:06:17;;;;;;;17.75;10.23;;;;;;;5.51;57.52;100613.00;4370283;32;33651;-82
2022/12/01 08:08:45;;;;;;;15.50;14.15;;;;;;;5.70;57.39;100606.69;4367297;32;33887;-82
2022/12/01 08:11:16;;;;;;;19.98;12.82;;;;;;;5.64;57.46;100607.59;4360866;32;33866;-83
2022/12/01 08:13:43;;;;;;;21.85;10.93;;;;;;;5.75;57.19;100607.50;4357117;32;32976;-82
2022/12/01 08:16:14;;;;;;;7.30;6.57;;;;;;;5.92;56.89;100609.06;4359707;32;32953;-83
2022/12/01 08:18:42;;;;;;;3.22;2.53;;;;;;;5.65;57.12;100603.25;4369157;32;33029;-82
2022/12/01 08:21:12;;;;;;;0.95;0.95;;;;;;;5.90;56.83;100596.81;4370992;32;34282;-82
2022/12/01 08:23:41;;;;;;;2.30;1.98;;;;;;;6.04;56.23;100603.69;4357790;32;33014;-82
2022/12/01 08:26:14;;;;;;;2.00;1.90;;;;;;;6.14;56.11;100592.19;4358601;32;33202;-82
2022/12/01 08:28:42;;;;;;;0.52;0.52;;;;;;;6.60;55.20;100588.94;4370632;32;33660;-82
2022/12/01 08:31:11;;;;;;;2.17;1.98;;;;;;;6.60;55.35;100599.44;4369396;32;33760;-82
2022/12/01 08:33:39;;;;;;;0.90;0.88;;;;;;;6.70;55.50;100590.53;4369525;32;33380;-82
2022/12/01 08:36:07;;;;;;;2.58;1.92;;;;;;;6.73;55.06;100600.09;4371141;32;34532;-82
2022/12/01 08:38:35;;;;;;;2.83;2.25;;;;;;;6.78;54.70;100593.88;4383946;32;33133;-82
2022/12/01 08:41:05;;;;;;;5.72;3.22;;;;;;;7.17;53.58;100602.91;4370506;32;32396;-82
2022/12/01 08:43:32;;;;;;;3.22;2.50;;;;;;;7.26;53.43;100604.47;4371714;32;33889;-83
2022/12/01 08:46:20;;;;;;;2.55;2.42;;;;;;;7.38;53.56;100612.16;4353594;32;32634;-82
2022/12/01 08:48:48;;;;;;;3.00;2.80;;;;;;;7.74;52.45;100600.97;4372383;32;33385;-83
2022/12/01 08:51:17;;;;;;;1.87;1.15;;;;;;;7.94;52.16;100597.09;4365818;32;33159;-82
2022/12/01 08:53:48;;;;;;;1.25;0.80;;;;;;;8.08;51.80;100593.31;4361612;32;33597;-83
2022/12/01 08:56:29;;;;;;;1.00;0.95;;;;;;;8.16;51.85;100601.88;4359021;32;33274;-82
2022/12/01 08:58:57;;;;;;;2.37;1.05;;;;;;;8.16;52.19;100599.25;4373999;32;34074;-82
2022/12/01 09:01:25;;;;;;;1.10;0.88;;;;;;;8.28;51.59;100596.37;4364216;32;33945;-82
2022/12/01 09:04:07;;;;;;;0.35;0.35;;;;;;;8.72;49.68;100602.44;4360534;32;33093;-83
2022/12/01 09:06:40;;;;;;;3.00;1.65;;;;;;;8.78;49.47;100602.28;4370818;32;33524;-86
2022/12/01 09:09:10;;;;;;;1.58;1.10;;;;;;;8.61;50.61;100604.47;4355675;32;32316;-86
2022/12/01 09:11:39;;;;;;;0.30;0.30;;;;;;;8.60;49.74;100603.59;4358569;32;33473;-86
2022/12/01 09:14:06;;;;;;;3.83;2.65;;;;;;;8.89;48.37;100592.38;4368161;32;34339;-86
2022/12/01 09:16:34;;;;;;;2.40;2.30;;;;;;;9.12;46.63;100596.22;4371367;32;34094;-86
2022/12/01 09:19:02;;;;;;;1.33;1.23;;;;;;;9.12;46.59;100593.59;4350109;32;34036;-86
2022/12/01 09:21:32;;;;;;;1.70;1.58;;;;;;;9.34;45.96;100585.97;4367602;32;33704;-86
2022/12/01 09:24:01;;;;;;;1.85;1.75;;;;;;;9.43;45.68;100580.47;4357434;32;33506;-87
2022/12/01 09:26:29;;;;;;;1.08;0.32;;;;;;;9.62;44.91;100583.47;4346380;32;33087;-87
2022/12/01 09:29:00;;;;;;;5.07;1.60;;;;;;;9.29;46.05;100585.25;4373792;32;32321;-88
2022/12/01 09:31:28;;;;;;;2.00;1.87;;;;;;;9.08;46.60;100578.75;4369738;32;33235;-88
2022/12/01 09:33:59;;;;;;;0.32;0.32;;;;;;;9.05;46.49;100584.09;4371089;32;33439;-89
2022/12/01 09:36:28;;;;;;;2.95;2.20;;;;;;;8.91;47.79;100580.03;4372507;32;34393;-88
2022/12/01 09:38:56;;;;;;;2.37;1.75;;;;;;;8.85;47.57;100580.19;4359985;32;32653;-88
2022/12/01 09:41:32;;;;;;;1.48;1.37;;;;;;;9.16;46.58;100576.78;4360317;32;34649;-88
2022/12/01 09:44:38;;;;;;;0.25;0.25;;;;;;;9.23;45.14;100575.72;4358027;32;33643;-88
2022/12/01 09:47:28;;;;;;;1.02;0.90;;;;;;;9.20;46.70;100575.78;4385007;32;33612;-87
2022/12/01 09:50:08;;;;;;;0.77;0.77;;;;;;;9.22;45.74;100566.09;4377728;32;33180;-88
2022/12/01 09:52:42;;;;;;;0.37;0.37;;;;;;;9.47;45.65;100559.25;4358518;32;33523;-87
2022/12/01 09:55:15;;;;;;;0.68;0.68;;;;;;;8.79;46.16;100561.91;4385796;32;32972;-87
2022/12/01 09:57:47;;;;;;;1.35;1.20;;;;;;;9.10;46.24;100567.25;4365022;32;32899;-88
2022/12/01 10:00:17;;;;;;;0.95;0.95;;;;;;;9.34;45.47;100562.25;4370932;32;32681;-87
2022/12/01 10:02:53;;;;;;;0.10;0.10;;;;;;;8.72;46.45;100562.94;4359589;32;32602;-88
2022/12/01 10:05:58;;;;;;;0.30;0.30;;;;;;;8.56;46.71;100559.81;4359818;32;33811;-88
2022/12/01 10:09:12;;;;;;;1.52;1.45;;;;;;;8.59;47.07;100559.75;4382949;32;35073;-88
2022/12/01 10:11:41;;;;;;;1.60;1.35;;;;;;;8.13;47.88;100559.88;4346885;32;32579;-88
2022/12/01 10:14:16;;;;;;;0.88;0.88;;;;;;;8.56;47.81;100561.59;4376389;32;34178;-88
2022/12/01 10:16:52;;;;;;;4.82;2.00;;;;;;;8.26;48.68;100555.19;4371116;32;32646;-89
2022/12/01 10:19:31;;;;;;;1.55;1.45;;;;;;;8.49;48.29;100554.72;4373393;32;33511;-88
2022/12/01 10:22:15;;;;;;;1.12;1.02;;;;;;;8.65;49.30;100548.22;4357897;32;32896;-87
2022/12/01 10:24:54;;;;;;;1.40;0.90;;;;;;;8.80;47.78;100542.56;4363930;32;32533;-88
2022/12/01 10:27:28;;;;;;;0.77;0.77;;;;;;;8.92;47.11;100547.50;4361559;32;32510;-88
2022/12/01 10:30:05;;;;;;;0.60;0.60;;;;;;;9.68;45.67;100538.47;4361816;32;34597;-87
2022/12/01 10:32:56;;;;;;;0.80;0.80;;;;;;;9.59;48.16;100533.47;4372830;32;33425;-88
2022/12/01 10:35:28;;;;;;;0.95;0.90;;;;;;;9.87;44.12;100534.41;4364902;32;33854;-88
2022/12/01 10:37:58;;;;;;;0.20;0.20;;;;;;;9.67;44.87;100527.06;4371215;32;33834;-88
2022/12/01 10:40:27;;;;;;;2.10;2.00;;;;;;;9.49;46.28;100522.31;4358921;32;33847;-88
2022/12/01 10:42:54;;;;;;;3.92;2.72;;;;;;;9.89;46.81;100521.19;4359669;32;33003;-87
2022/12/01 10:45:24;;;;;;;2.55;1.08;;;;;;;10.35;44.95;100523.34;4358365;32;34630;-87
2022/12/01 10:48:14;;;;;;;0.98;0.98;;;;;;;10.65;42.60;100513.56;4369147;32;34660;-87
2022/12/01 10:50:48;;;;;;;1.40;1.23;;;;;;;10.14;44.00;100516.88;4370557;32;32899;-87
2022/12/01 10:53:21;;;;;;;1.35;1.27;;;;;;;10.01;44.34;100518.16;4377905;32;31913;-87
2022/12/01 10:55:58;;;;;;;2.45;2.22;;;;;;;9.81;45.45;100524.03;4361855;32;32843;-87
2022/12/01 10:58:26;;;;;;;0.62;0.62;;;;;;;9.28;46.08;100528.19;4360533;32;33844;-87
2022/12/01 11:01:01;;;;;;;0.82;0.82;;;;;;;8.97;46.83;100537.75;4347630;32;33190;-87
2022/12/01 11:03:31;;;;;;;1.67;1.08;;;;;;;9.03;48.31;100534.09;4376478;32;32895;-88
2022/12/01 11:06:00;;;;;;;0.98;0.20;;;;;;;8.98;47.68;100528.94;4372429;32;33104;-87
2022/12/01 11:08:52;;;;;;;1.35;1.23;;;;;;;9.27;46.96;100522.03;4353928;32;33033;-87
2022/12/01 11:11:34;;;;;;;0.98;0.98;;;;;;;9.48;45.52;100517.94;4377191;32;33866;-87
2022/12/01 11:14:22;;;;;;;0.47;0.47;;;;;;;9.36;47.29;100511.25;4346759;32;32161;-87
2022/12/01 11:16:53;;;;;;;11.82;2.10;;;;;;;9.62;45.87;100499.09;4369186;32;32866;-88
2022/12/01 11:19:33;;;;;;;0.73;0.73;;;;;;;9.86;45.75;100495.75;4359507;32;34538;-87
2022/12/01 11:22:18;;;;;;;0.40;0.40;;;;;;;9.77;45.27;100489.88;4352239;32;33152;-87
2022/12/01 11:24:52;;;;;;;3.20;2.97;;;;;;;9.67;45.02;100486.66;4372983;32;31941;-86
2022/12/01 11:27:22;;;;;;;0.62;0.62;;;;;;;9.73;45.80;100497.00;4376974;32;33441;-86
2022/12/01 11:30:03;;;;;;;1.58;1.20;;;;;;;9.64;46.86;100492.03;4363657;32;32712;-86
2022/12/01 11:32:36;;;;;;;3.60;1.90;;;;;;;9.39;45.88;100492.69;4369931;32;33829;-86
2022/12/01 11:35:19;;;;;;;0.13;0.13;;;;;;;9.69;47.13;100488.34;4374032;32;33724;-86
2022/12/01 11:37:50;;;;;;;2.53;1.80;;;;;;;9.92;45.66;100490.31;4360945;32;34264;-86
2022/12/01 11:40:47;;;;;;;1.35;1.20;;;;;;;10.25;44.37;100487.56;4351392;32;33378;-85
2022/12/01 11:43:33;;;;;;;4.43;1.95;;;;;;;10.13;44.73;100493.19;4364883;32;31735;-85
2022/12/01 11:46:05;;;;;;;0.20;0.20;;;;;;;10.44;43.32;100475.53;4371705;32;33327;-85
2022/12/01 11:48:35;;;;;;;1.50;1.40;;;;;;;10.25;44.12;100477.87;4371842;32;33738;-85
2022/12/01 11:51:10;;;;;;;1.55;1.17;;;;;;;10.57;43.29;100485.66;4363539;32;33890;-85
2022/12/01 11:53:40;;;;;;;1.48;0.50;;;;;;;9.59;45.06;100481.63;4383304;32;34125;-85
2022/12/01 11:56:13;;;;;;;0.30;0.25;;;;;;;10.09;44.52;100475.72;4368724;32;32941;-85
2022/12/01 11:58:41;;;;;;;;;;;;;;;9.81;45.17;100487.09;4374823;32;33924;-85
2022/12/01 12:01:39;;;;;;;1.45;1.35;;;;;;;10.00;44.74;100477.72;4371088;32;34318;-85